sensor_id;sensor_type;location;lat;lon;timestamp;pressure;altitude;pressure_sealevel;temperature;humidity
41222;BME280;26952;42.884;23.918;2023-02-24T00:01:35;95908.16;;;5.02;100.00
41222;BME280;26952;42.884;23.918;2023-02-24T00:04:08;95917.66;;;4.94;100.00
41222;BME280;26952;42.884;23.918;2023-02-24T00:06:36;95917.94;;;4.91;100.00
41222;BME280;26952;42.884;23.918;2023-02-24T00:09:10;95910.06;;;4.91;100.00
41222;BME280;26952;42.884;23.918;2023-02-24T00:11:43;95918.22;;;4.88;100.00
41222;BME280;26952;42.884;23.918;2023-02-24T00:14:11;95897.59;;;4.74;100.00
41222;BME280;26952;42.884;23.918;2023-02-24T00:16:41;95909.50;;;4.78;100.00
41222;BME280;26952;42.884;23.918;2023-02-24T00:19:07;95903.41;;;4.68;100.00
41222;BME280;26952;42.884;23.918;2023-02-24T00:21:33;95884.34;;;4.66;100.00
41222;BME280;26952;42.884;23.918;2023-02-24T00:23:59;95899.66;;;4.61;100.00
41222;BME280;26952;42.884;23.918;2023-02-24T00:26:26;95916.66;;;4.76;100.00
41222;BME280;26952;42.884;23.918;2023-02-24T00:28:54;95886.03;;;4.67;100.00
41222;BME280;26952;42.884;23.918;2023-02-24T00:31:19;95897.09;;;4.80;100.00
41222;BME280;26952;42.884;23.918;2023-02-24T00:33:48;95902.56;;;4.67;100.00
41222;BME280;26952;42.884;23.918;2023-02-24T00:36:16;95891.81;;;4.70;100.00
41222;BME280;26952;42.884;23.918;2023-02-24T00:38:49;95884.06;;;4.69;100.00
41222;BME280;26952;42.884;23.918;2023-02-24T00:41:17;95885.63;;;4.81;100.00
41222;BME280;26952;42.884;23.918;2023-02-24T00:43:43;95899.44;;;4.83;100.00
41222;BME280;26952;42.884;23.918;2023-02-24T00:46:14;95900.94;;;4.85;100.00
41222;BME280;26952;42.884;23.918;2023-02-24T00:48:42;95892.38;;;4.83;100.00
41222;BME280;26952;42.884;23.918;2023-02-24T00:51:11;95895.97;;;4.82;100.00
41222;BME280;26952;42.884;23.918;2023-02-24T00:53:38;95884.53;;;4.93;100.00
41222;BME280;26952;42.884;23.918;2023-02-24T00:56:05;95884.13;;;4.88;100.00
41222;BME280;26952;42.884;23.918;2023-02-24T00:58:34;95874.72;;;4.95;100.00
41222;BME280;26952;42.884;23.918;2023-02-24T01:01:00;95858.31;;;4.93;100.00
41222;BME280;26952;42.884;23.918;2023-02-24T01:03:26;95854.56;;;4.86;100.00
41222;BME280;26952;42.884;23.918;2023-02-24T01:05:52;95857.75;;;4.89;100.00
41222;BME280;26952;42.884;23.918;2023-02-24T01:08:18;95867.53;;;4.97;100.00
41222;BME280;26952;42.884;23.918;2023-02-24T01:10:56;95859.25;;;4.92;100.00
41222;BME280;26952;42.884;23.918;2023-02-24T01:13:43;95848.06;;;4.90;100.00
41222;BME280;26952;42.884;23.918;2023-02-24T01:16:08;95854.03;;;4.82;100.00
41222;BME280;26952;42.884;23.918;2023-02-24T01:18:34;95838.28;;;4.82;100.00
41222;BME280;26952;42.884;23.918;2023-02-24T01:20:59;95853.19;;;4.91;100.00
41222;BME280;26952;42.884;23.918;2023-02-24T01:23:25;95848.22;;;4.98;100.00
41222;BME280;26952;42.884;23.918;2023-02-24T01:25:51;95840.75;;;5.03;100.00
41222;BME280;26952;42.884;23.918;2023-02-24T01:28:17;95844.06;;;5.05;100.00
41222;BME280;26952;42.884;23.918;2023-02-24T01:30:43;95842.28;;;5.15;100.00
41222;BME280;26952;42.884;23.918;2023-02-24T01:33:09;95840.47;;;5.06;100.00
41222;BME280;26952;42.884;23.918;2023-02-24T01:35:39;95843.94;;;4.97;100.00
41222;BME280;26952;42.884;23.918;2023-02-24T01:38:05;95833.75;;;4.84;100.00
41222;BME280;26952;42.884;23.918;2023-02-24T01:40:31;95833.19;;;4.81;100.00
41222;BME280;26952;42.884;23.918;2023-02-24T01:42:56;95841.88;;;4.81;100.00
41222;BME280;26952;42.884;23.918;2023-02-24T01:45:27;95838.00;;;4.76;100.00
41222;BME280;26952;42.884;23.918;2023-02-24T01:47:56;95848.06;;;4.71;100.00
41222;BME280;26952;42.884;23.918;2023-02-24T01:50:25;95839.38;;;4.61;100.00
41222;BME280;26952;42.884;23.918;2023-02-24T01:52:55;95829.31;;;4.66;100.00
41222;BME280;26952;42.884;23.918;2023-02-24T01:55:25;95839.94;;;4.64;100.00
41222;BME280;26952;42.884;23.918;2023-02-24T01:57:54;95839.78;;;4.66;100.00
41222;BME280;26952;42.884;23.918;2023-02-24T02:00:20;95826.13;;;4.53;100.00
41222;BME280;26952;42.884;23.918;2023-02-24T02:03:28;95849.84;;;4.61;100.00
41222;BME280;26952;42.884;23.918;2023-02-24T02:05:59;95837.72;;;4.60;100.00
41222;BME280;26952;42.884;23.918;2023-02-24T02:08:26;95833.56;;;4.57;100.00
41222;BME280;26952;42.884;23.918;2023-02-24T02:10:52;95831.91;;;4.47;100.00
41222;BME280;26952;42.884;23.918;2023-02-24T02:13:24;95800.16;;;4.21;100.00
41222;BME280;26952;42.884;23.918;2023-02-24T02:24:14;95831.63;;;4.50;100.00
41222;BME280;26952;42.884;23.918;2023-02-24T02:27:09;95830.78;;;4.40;100.00
41222;BME280;26952;42.884;23.918;2023-02-24T02:33:11;95844.03;;;4.28;100.00
41222;BME280;26952;42.884;23.918;2023-02-24T02:38:22;95830.66;;;4.32;100.00
41222;BME280;26952;42.884;23.918;2023-02-24T02:43:31;95846.25;;;4.43;100.00
41222;BME280;26952;42.884;23.918;2023-02-24T02:46:16;95838.28;;;4.54;100.00
41222;BME280;26952;42.884;23.918;2023-02-24T02:49:03;95833.03;;;4.44;100.00
41222;BME280;26952;42.884;23.918;2023-02-24T02:51:39;95804.88;;;4.37;100.00
41222;BME280;26952;42.884;23.918;2023-02-24T02:54:35;95843.13;;;4.68;100.00
41222;BME280;26952;42.884;23.918;2023-02-24T02:57:08;95838.84;;;4.67;100.00
41222;BME280;26952;42.884;23.918;2023-02-24T02:59:43;95831.66;;;4.78;100.00
41222;BME280;26952;42.884;23.918;2023-02-24T03:02:14;95820.34;;;4.78;100.00
41222;BME280;26952;42.884;23.918;2023-02-24T03:04:45;95824.06;;;4.66;100.00
41222;BME280;26952;42.884;23.918;2023-02-24T03:07:16;95806.97;;;4.62;100.00
41222;BME280;26952;42.884;23.918;2023-02-24T03:09:46;95816.75;;;4.69;100.00
41222;BME280;26952;42.884;23.918;2023-02-24T03:12:17;95819.25;;;4.71;100.00
41222;BME280;26952;42.884;23.918;2023-02-24T03:14:51;95805.44;;;4.69;100.00
41222;BME280;26952;42.884;23.918;2023-02-24T03:17:24;95812.88;;;4.64;100.00
41222;BME280;26952;42.884;23.918;2023-02-24T03:19:56;95816.63;;;4.61;100.00
41222;BME280;26952;42.884;23.918;2023-02-24T03:22:36;95804.31;;;4.43;100.00
41222;BME280;26952;42.884;23.918;2023-02-24T03:25:05;95807.34;;;4.48;100.00
41222;BME280;26952;42.884;23.918;2023-02-24T03:27:58;95811.66;;;4.49;100.00
41222;BME280;26952;42.884;23.918;2023-02-24T03:30:35;95810.66;;;4.31;100.00
41222;BME280;26952;42.884;23.918;2023-02-24T03:33:19;95795.34;;;4.26;100.00
41222;BME280;26952;42.884;23.918;2023-02-24T03:35:48;95801.16;;;4.39;100.00
41222;BME280;26952;42.884;23.918;2023-02-24T03:38:16;95800.97;;;4.21;100.00
41222;BME280;26952;42.884;23.918;2023-02-24T03:40:42;95793.09;;;4.12;100.00
41222;BME280;26952;42.884;23.918;2023-02-24T03:43:15;95800.19;;;4.31;100.00
41222;BME280;26952;42.884;23.918;2023-02-24T03:45:44;95776.47;;;4.22;100.00
41222;BME280;26952;42.884;23.918;2023-02-24T03:48:11;95783.19;;;4.15;100.00
41222;BME280;26952;42.884;23.918;2023-02-24T03:50:38;95775.06;;;4.09;100.00
41222;BME280;26952;42.884;23.918;2023-02-24T04:01:30;95775.47;;;4.23;100.00
41222;BME280;26952;42.884;23.918;2023-02-24T04:04:10;95774.69;;;4.33;100.00
41222;BME280;26952;42.884;23.918;2023-02-24T04:06:46;95779.78;;;4.44;100.00
41222;BME280;26952;42.884;23.918;2023-02-24T04:12:28;95776.88;;;4.47;100.00
41222;BME280;26952;42.884;23.918;2023-02-24T04:15:34;95776.47;;;4.42;100.00
41222;BME280;26952;42.884;23.918;2023-02-24T04:18:23;95780.22;;;4.58;100.00
41222;BME280;26952;42.884;23.918;2023-02-24T04:20:49;95762.00;;;4.57;100.00
41222;BME280;26952;42.884;23.918;2023-02-24T04:23:20;95758.81;;;4.63;100.00
41222;BME280;26952;42.884;23.918;2023-02-24T04:25:50;95773.84;;;4.80;100.00
41222;BME280;26952;42.884;23.918;2023-02-24T04:28:16;95750.97;;;4.63;100.00
41222;BME280;26952;42.884;23.918;2023-02-24T04:30:48;95749.59;;;4.68;100.00
41222;BME280;26952;42.884;23.918;2023-02-24T04:33:15;95755.78;;;4.58;100.00
41222;BME280;26952;42.884;23.918;2023-02-24T04:35:43;95759.94;;;4.70;100.00
41222;BME280;26952;42.884;23.918;2023-02-24T04:38:09;95746.13;;;4.68;100.00
41222;BME280;26952;42.884;23.918;2023-02-24T04:40:35;95743.91;;;4.73;100.00
41222;BME280;26952;42.884;23.918;2023-02-24T04:43:01;95728.88;;;4.56;100.00
41222;BME280;26952;42.884;23.918;2023-02-24T04:45:28;95735.50;;;4.60;100.00
41222;BME280;26952;42.884;23.918;2023-02-24T04:47:57;95733.59;;;4.62;100.00
41222;BME280;26952;42.884;23.918;2023-02-24T04:50:29;95737.84;;;4.72;100.00
41222;BME280;26952;42.884;23.918;2023-02-24T04:52:57;95748.59;;;4.79;100.00
41222;BME280;26952;42.884;23.918;2023-02-24T04:55:28;95741.69;;;4.87;100.00
41222;BME280;26952;42.884;23.918;2023-02-24T04:57:58;95730.38;;;4.87;100.00
41222;BME280;26952;42.884;23.918;2023-02-24T05:00:24;95735.59;;;4.87;100.00
41222;BME280;26952;42.884;23.918;2023-02-24T05:02:58;95730.66;;;4.84;100.00
41222;BME280;26952;42.884;23.918;2023-02-24T05:05:26;95734.09;;;4.84;100.00
41222;BME280;26952;42.884;23.918;2023-02-24T05:07:53;95735.31;;;4.90;100.00
41222;BME280;26952;42.884;23.918;2023-02-24T05:10:19;95716.56;;;4.75;100.00
41222;BME280;26952;42.884;23.918;2023-02-24T05:12:44;95739.78;;;4.80;100.00
41222;BME280;26952;42.884;23.918;2023-02-24T05:15:10;95725.44;;;4.65;100.00
41222;BME280;26952;42.884;23.918;2023-02-24T05:17:39;95736.75;;;4.75;100.00
41222;BME280;26952;42.884;23.918;2023-02-24T05:20:07;95729.28;;;4.70;100.00
41222;BME280;26952;42.884;23.918;2023-02-24T05:22:51;95744.47;;;4.67;100.00
41222;BME280;26952;42.884;23.918;2023-02-24T05:25:17;95725.31;;;4.57;100.00
41222;BME280;26952;42.884;23.918;2023-02-24T05:27:43;95703.38;;;4.48;100.00
41222;BME280;26952;42.884;23.918;2023-02-24T05:30:09;95730.97;;;4.62;100.00
41222;BME280;26952;42.884;23.918;2023-02-24T05:32:35;95724.31;;;4.67;100.00
41222;BME280;26952;42.884;23.918;2023-02-24T05:35:02;95723.78;;;4.73;100.00
41222;BME280;26952;42.884;23.918;2023-02-24T05:37:27;95728.56;;;4.97;100.00
41222;BME280;26952;42.884;23.918;2023-02-24T05:39:56;95728.09;;;5.11;100.00
41222;BME280;26952;42.884;23.918;2023-02-24T05:42:25;95732.63;;;5.28;100.00
41222;BME280;26952;42.884;23.918;2023-02-24T05:44:52;95738.06;;;5.44;100.00
41222;BME280;26952;42.884;23.918;2023-02-24T05:47:18;95736.25;;;5.54;100.00
41222;BME280;26952;42.884;23.918;2023-02-24T05:49:44;95763.00;;;5.67;100.00
41222;BME280;26952;42.884;23.918;2023-02-24T05:52:12;95750.31;;;5.53;100.00
41222;BME280;26952;42.884;23.918;2023-02-24T05:54:42;95744.56;;;5.49;100.00
41222;BME280;26952;42.884;23.918;2023-02-24T05:57:15;95759.56;;;5.57;100.00
41222;BME280;26952;42.884;23.918;2023-02-24T05:59:43;95754.72;;;5.62;100.00
41222;BME280;26952;42.884;23.918;2023-02-24T06:02:11;95764.03;;;5.74;100.00
41222;BME280;26952;42.884;23.918;2023-02-24T06:04:40;95749.66;;;5.78;100.00
41222;BME280;26952;42.884;23.918;2023-02-24T06:07:17;95756.84;;;5.76;100.00
41222;BME280;26952;42.884;23.918;2023-02-24T06:09:48;95755.50;;;5.72;100.00
41222;BME280;26952;42.884;23.918;2023-02-24T06:12:22;95764.56;;;5.87;100.00
41222;BME280;26952;42.884;23.918;2023-02-24T06:14:48;95752.66;;;5.93;100.00
41222;BME280;26952;42.884;23.918;2023-02-24T06:17:15;95732.19;;;5.96;100.00
41222;BME280;26952;42.884;23.918;2023-02-24T06:19:42;95763.94;;;6.03;100.00
41222;BME280;26952;42.884;23.918;2023-02-24T06:22:11;95743.16;;;6.09;100.00
41222;BME280;26952;42.884;23.918;2023-02-24T06:24:37;95749.69;;;6.23;100.00
41222;BME280;26952;42.884;23.918;2023-02-24T06:27:06;95756.94;;;6.38;100.00
41222;BME280;26952;42.884;23.918;2023-02-24T06:29:36;95741.81;;;6.40;100.00
41222;BME280;26952;42.884;23.918;2023-02-24T06:32:02;95761.66;;;6.52;100.00
41222;BME280;26952;42.884;23.918;2023-02-24T06:34:39;95757.16;;;6.62;100.00
41222;BME280;26952;42.884;23.918;2023-02-24T06:37:06;95736.56;;;6.40;100.00
41222;BME280;26952;42.884;23.918;2023-02-24T06:39:32;95752.13;;;6.51;100.00
41222;BME280;26952;42.884;23.918;2023-02-24T06:41:58;95740.09;;;6.31;100.00
41222;BME280;26952;42.884;23.918;2023-02-24T06:44:31;95754.84;;;6.42;100.00
41222;BME280;26952;42.884;23.918;2023-02-24T06:46:58;95750.09;;;6.45;100.00
41222;BME280;26952;42.884;23.918;2023-02-24T06:49:24;95750.63;;;6.49;100.00
41222;BME280;26952;42.884;23.918;2023-02-24T06:51:51;95763.09;;;6.64;100.00
41222;BME280;26952;42.884;23.918;2023-02-24T06:54:16;95750.19;;;6.71;100.00
41222;BME280;26952;42.884;23.918;2023-02-24T06:56:43;95750.44;;;6.68;100.00
41222;BME280;26952;42.884;23.918;2023-02-24T06:59:08;95770.81;;;6.83;100.00
41222;BME280;26952;42.884;23.918;2023-02-24T07:01:40;95776.69;;;6.77;100.00
41222;BME280;26952;42.884;23.918;2023-02-24T07:04:15;95767.88;;;6.86;100.00
41222;BME280;26952;42.884;23.918;2023-02-24T07:06:43;95760.00;;;6.86;100.00
41222;BME280;26952;42.884;23.918;2023-02-24T07:09:11;95750.75;;;6.82;100.00
41222;BME280;26952;42.884;23.918;2023-02-24T07:11:41;95745.97;;;7.03;100.00
41222;BME280;26952;42.884;23.918;2023-02-24T07:14:09;95750.03;;;7.16;100.00
41222;BME280;26952;42.884;23.918;2023-02-24T07:16:35;95736.59;;;7.27;100.00
41222;BME280;26952;42.884;23.918;2023-02-24T07:19:04;95735.31;;;7.31;100.00
41222;BME280;26952;42.884;23.918;2023-02-24T07:21:36;95740.84;;;7.20;100.00
41222;BME280;26952;42.884;23.918;2023-02-24T07:24:15;95738.75;;;6.27;100.00
41222;BME280;26952;42.884;23.918;2023-02-24T07:26:54;95741.16;;;6.21;100.00
41222;BME280;26952;42.884;23.918;2023-02-24T07:29:20;95739.25;;;6.31;100.00
41222;BME280;26952;42.884;23.918;2023-02-24T07:31:46;95744.09;;;6.70;100.00
41222;BME280;26952;42.884;23.918;2023-02-24T07:34:12;95730.00;;;7.23;100.00
41222;BME280;26952;42.884;23.918;2023-02-24T07:36:39;95732.97;;;7.95;100.00
41222;BME280;26952;42.884;23.918;2023-02-24T07:39:14;95710.41;;;8.58;100.00
41222;BME280;26952;42.884;23.918;2023-02-24T07:41:40;95712.00;;;9.39;100.00
41222;BME280;26952;42.884;23.918;2023-02-24T07:44:11;95721.00;;;10.16;100.00
41222;BME280;26952;42.884;23.918;2023-02-24T07:46:36;95719.84;;;10.41;97.51
41222;BME280;26952;42.884;23.918;2023-02-24T07:49:02;95723.00;;;10.89;99.73
41222;BME280;26952;42.884;23.918;2023-02-24T07:51:28;95702.56;;;10.98;86.11
41222;BME280;26952;42.884;23.918;2023-02-24T07:53:57;95703.00;;;11.24;84.20
41222;BME280;26952;42.884;23.918;2023-02-24T07:56:25;95703.66;;;10.89;80.68
41222;BME280;26952;42.884;23.918;2023-02-24T07:59:04;95722.91;;;9.36;94.91
41222;BME280;26952;42.884;23.918;2023-02-24T08:01:34;95705.59;;;9.26;97.71
41222;BME280;26952;42.884;23.918;2023-02-24T08:04:05;95723.91;;;9.19;100.00
41222;BME280;26952;42.884;23.918;2023-02-24T08:06:37;95731.34;;;9.08;100.00
41222;BME280;26952;42.884;23.918;2023-02-24T08:09:07;95733.84;;;8.77;100.00
41222;BME280;26952;42.884;23.918;2023-02-24T08:11:53;95717.00;;;9.02;100.00
41222;BME280;26952;42.884;23.918;2023-02-24T08:14:24;95721.28;;;9.19;100.00
41222;BME280;26952;42.884;23.918;2023-02-24T08:16:52;95726.88;;;9.32;100.00
41222;BME280;26952;42.884;23.918;2023-02-24T08:19:25;95716.16;;;9.26;100.00
41222;BME280;26952;42.884;23.918;2023-02-24T08:21:58;95720.72;;;9.56;100.00
41222;BME280;26952;42.884;23.918;2023-02-24T08:24:47;95723.19;;;10.04;97.28
41222;BME280;26952;42.884;23.918;2023-02-24T08:27:23;95722.94;;;10.75;89.29
41222;BME280;26952;42.884;23.918;2023-02-24T08:29:51;95685.53;;;10.78;82.70
41222;BME280;26952;42.884;23.918;2023-02-24T08:32:37;95719.00;;;10.93;80.94
41222;BME280;26952;42.884;23.918;2023-02-24T08:35:14;95713.28;;;10.82;79.95
41222;BME280;26952;42.884;23.918;2023-02-24T08:37:42;95715.88;;;10.45;82.07
41222;BME280;26952;42.884;23.918;2023-02-24T08:40:22;95715.88;;;10.14;84.74
41222;BME280;26952;42.884;23.918;2023-02-24T08:43:03;95695.09;;;10.03;86.87
41222;BME280;26952;42.884;23.918;2023-02-24T08:45:46;95706.47;;;10.04;85.25
41222;BME280;26952;42.884;23.918;2023-02-24T08:48:17;95717.56;;;9.99;86.85
41222;BME280;26952;42.884;23.918;2023-02-24T08:50:54;95703.59;;;9.82;86.95
41222;BME280;26952;42.884;23.918;2023-02-24T08:53:21;95703.41;;;9.84;87.98
41222;BME280;26952;42.884;23.918;2023-02-24T08:55:49;95678.00;;;9.83;87.59
41222;BME280;26952;42.884;23.918;2023-02-24T08:58:18;95689.75;;;9.80;89.41
41222;BME280;26952;42.884;23.918;2023-02-24T09:00:57;95688.84;;;9.57;92.88
41222;BME280;26952;42.884;23.918;2023-02-24T09:03:27;95674.03;;;9.87;90.83
41222;BME280;26952;42.884;23.918;2023-02-24T09:06:05;95688.63;;;10.06;89.66
41222;BME280;26952;42.884;23.918;2023-02-24T09:08:34;95676.16;;;9.92;89.43
41222;BME280;26952;42.884;23.918;2023-02-24T09:11:07;95672.75;;;10.06;91.71
41222;BME280;26952;42.884;23.918;2023-02-24T09:13:37;95666.06;;;9.95;88.63
41222;BME280;26952;42.884;23.918;2023-02-24T09:16:08;95661.84;;;10.09;87.56
41222;BME280;26952;42.884;23.918;2023-02-24T09:18:41;95645.53;;;9.97;88.04
41222;BME280;26952;42.884;23.918;2023-02-24T09:21:11;95650.94;;;10.12;87.37
41222;BME280;26952;42.884;23.918;2023-02-24T09:24:00;95645.06;;;9.94;86.88
41222;BME280;26952;42.884;23.918;2023-02-24T09:26:31;95648.75;;;9.46;91.43
41222;BME280;26952;42.884;23.918;2023-02-24T09:29:10;95661.88;;;9.15;96.32
41222;BME280;26952;42.884;23.918;2023-02-24T09:31:56;95667.63;;;9.35;98.06
41222;BME280;26952;42.884;23.918;2023-02-24T09:34:34;95670.13;;;9.20;96.17
41222;BME280;26952;42.884;23.918;2023-02-24T09:37:00;95658.25;;;9.16;97.14
41222;BME280;26952;42.884;23.918;2023-02-24T09:39:29;95663.81;;;9.29;95.62
41222;BME280;26952;42.884;23.918;2023-02-24T09:42:14;95652.53;;;9.51;92.38
41222;BME280;26952;42.884;23.918;2023-02-24T09:45:00;95651.63;;;9.67;92.43
41222;BME280;26952;42.884;23.918;2023-02-24T09:47:46;95648.75;;;9.84;90.72
41222;BME280;26952;42.884;23.918;2023-02-24T09:52:51;95650.84;;;10.28;86.93
41222;BME280;26952;42.884;23.918;2023-02-24T09:55:26;95642.25;;;10.48;86.95
41222;BME280;26952;42.884;23.918;2023-02-24T09:58:06;95646.88;;;10.69;82.61
41222;BME280;26952;42.884;23.918;2023-02-24T10:01:22;95635.00;;;11.02;82.45
41222;BME280;26952;42.884;23.918;2023-02-24T10:03:57;95633.00;;;11.33;80.73
41222;BME280;26952;42.884;23.918;2023-02-24T10:06:38;95614.38;;;11.56;77.89
41222;BME280;26952;42.884;23.918;2023-02-24T10:09:38;95623.09;;;12.00;77.05
41222;BME280;26952;42.884;23.918;2023-02-24T10:14:55;95613.06;;;13.01;69.41
41222;BME280;26952;42.884;23.918;2023-02-24T10:17:50;95605.16;;;13.41;65.66
41222;BME280;26952;42.884;23.918;2023-02-24T10:20:24;95598.84;;;13.49;64.70
41222;BME280;26952;42.884;23.918;2023-02-24T10:23:16;95597.97;;;13.69;63.66
41222;BME280;26952;42.884;23.918;2023-02-24T10:25:54;95587.94;;;13.78;61.98
41222;BME280;26952;42.884;23.918;2023-02-24T10:31:20;95574.09;;;13.08;64.99
41222;BME280;26952;42.884;23.918;2023-02-24T10:34:11;95581.91;;;13.16;65.99
41222;BME280;26952;42.884;23.918;2023-02-24T10:36:37;95568.97;;;13.40;67.45
41222;BME280;26952;42.884;23.918;2023-02-24T10:39:22;95582.25;;;13.81;66.49
41222;BME280;26952;42.884;23.918;2023-02-24T10:41:56;95565.66;;;13.32;66.13
41222;BME280;26952;42.884;23.918;2023-02-24T10:44:24;95559.16;;;13.47;64.81
41222;BME280;26952;42.884;23.918;2023-02-24T10:47:01;95563.84;;;13.39;66.69
41222;BME280;26952;42.884;23.918;2023-02-24T10:49:58;95567.78;;;13.15;66.46
41222;BME280;26952;42.884;23.918;2023-02-24T10:55:26;95555.50;;;13.08;66.89
41222;BME280;26952;42.884;23.918;2023-02-24T10:58:04;95555.66;;;13.34;65.42
41222;BME280;26952;42.884;23.918;2023-02-24T11:00:43;95541.22;;;13.56;64.21
41222;BME280;26952;42.884;23.918;2023-02-24T11:03:28;95553.00;;;13.34;64.51
41222;BME280;26952;42.884;23.918;2023-02-24T11:06:01;95527.16;;;13.28;65.76
41222;BME280;26952;42.884;23.918;2023-02-24T11:08:27;95533.59;;;13.40;64.46
41222;BME280;26952;42.884;23.918;2023-02-24T11:11:22;95533.19;;;13.43;64.22
41222;BME280;26952;42.884;23.918;2023-02-24T11:13:59;95515.88;;;13.60;63.77
41222;BME280;26952;42.884;23.918;2023-02-24T11:16:50;95504.72;;;13.97;65.16
41222;BME280;26952;42.884;23.918;2023-02-24T11:19:43;95496.75;;;13.97;61.12
41222;BME280;26952;42.884;23.918;2023-02-24T11:22:14;95505.41;;;14.25;60.32
41222;BME280;26952;42.884;23.918;2023-02-24T11:24:43;95518.19;;;13.76;63.44
41222;BME280;26952;42.884;23.918;2023-02-24T11:27:10;95508.56;;;13.81;63.37
41222;BME280;26952;42.884;23.918;2023-02-24T11:35:24;95493.75;;;14.78;59.21
41222;BME280;26952;42.884;23.918;2023-02-24T11:40:41;95471.69;;;15.28;56.72
41222;BME280;26952;42.884;23.918;2023-02-24T11:43:16;95458.91;;;14.60;58.05
41222;BME280;26952;42.884;23.918;2023-02-24T11:45:50;95460.75;;;14.60;58.47
41222;BME280;26952;42.884;23.918;2023-02-24T11:48:39;95466.06;;;14.79;58.72
41222;BME280;26952;42.884;23.918;2023-02-24T11:51:23;95464.97;;;15.06;56.84
41222;BME280;26952;42.884;23.918;2023-02-24T11:56:24;95456.44;;;14.78;56.87
41222;BME280;26952;42.884;23.918;2023-02-24T12:01:32;95448.44;;;14.78;56.56
41222;BME280;26952;42.884;23.918;2023-02-24T12:06:54;95440.50;;;15.22;56.44
41222;BME280;26952;42.884;23.918;2023-02-24T12:09:25;95425.09;;;15.24;54.48
41222;BME280;26952;42.884;23.918;2023-02-24T12:12:00;95435.91;;;15.49;54.46
41222;BME280;26952;42.884;23.918;2023-02-24T12:14:46;95430.59;;;15.43;55.03
41222;BME280;26952;42.884;23.918;2023-02-24T12:17:21;95430.03;;;15.21;54.07
41222;BME280;26952;42.884;23.918;2023-02-24T12:20:03;95416.75;;;15.08;54.18
41222;BME280;26952;42.884;23.918;2023-02-24T12:23:00;95435.69;;;15.51;53.77
41222;BME280;26952;42.884;23.918;2023-02-24T12:25:31;95418.22;;;16.17;52.42
41222;BME280;26952;42.884;23.918;2023-02-24T12:28:26;95411.66;;;15.88;51.26
41222;BME280;26952;42.884;23.918;2023-02-24T12:41:23;95405.59;;;15.30;52.83
41222;BME280;26952;42.884;23.918;2023-02-24T12:46:34;95384.59;;;15.03;53.15
41222;BME280;26952;42.884;23.918;2023-02-24T12:54:45;95391.25;;;15.32;52.95
41222;BME280;26952;42.884;23.918;2023-02-24T12:57:42;95391.69;;;15.22;52.72
41222;BME280;26952;42.884;23.918;2023-02-24T13:00:29;95372.09;;;15.03;53.04
41222;BME280;26952;42.884;23.918;2023-02-24T13:11:39;95377.78;;;15.13;52.93
41222;BME280;26952;42.884;23.918;2023-02-24T13:16:36;95365.22;;;14.76;54.67
41222;BME280;26952;42.884;23.918;2023-02-24T13:19:27;95380.31;;;14.95;54.88
41222;BME280;26952;42.884;23.918;2023-02-24T13:24:29;95377.28;;;15.29;55.67
41222;BME280;26952;42.884;23.918;2023-02-24T13:27:20;95371.09;;;15.42;53.27
41222;BME280;26952;42.884;23.918;2023-02-24T13:32:40;95361.47;;;15.35;54.97
41222;BME280;26952;42.884;23.918;2023-02-24T13:37:45;95366.78;;;15.48;54.78
41222;BME280;26952;42.884;23.918;2023-02-24T13:40:32;95368.44;;;15.42;54.24
41222;BME280;26952;42.884;23.918;2023-02-24T13:50:42;95374.72;;;15.54;55.05
41222;BME280;26952;42.884;23.918;2023-02-24T13:56:09;95374.16;;;15.77;52.89
41222;BME280;26952;42.884;23.918;2023-02-24T14:01:12;95371.28;;;15.47;53.17
41222;BME280;26952;42.884;23.918;2023-02-24T14:03:41;95354.28;;;15.42;53.39
41222;BME280;26952;42.884;23.918;2023-02-24T14:06:24;95329.25;;;15.36;52.53
41222;BME280;26952;42.884;23.918;2023-02-24T14:08:54;95353.44;;;15.48;52.70
41222;BME280;26952;42.884;23.918;2023-02-24T14:11:23;95342.94;;;15.53;52.50
41222;BME280;26952;42.884;23.918;2023-02-24T14:13:54;95340.88;;;15.48;52.69
41222;BME280;26952;42.884;23.918;2023-02-24T14:16:22;95357.06;;;15.53;53.57
41222;BME280;26952;42.884;23.918;2023-02-24T14:18:57;95353.91;;;15.63;52.50
41222;BME280;26952;42.884;23.918;2023-02-24T14:21:26;95329.00;;;15.51;51.91
41222;BME280;26952;42.884;23.918;2023-02-24T14:24:08;95352.53;;;15.60;52.37
41222;BME280;26952;42.884;23.918;2023-02-24T14:26:45;95329.25;;;15.43;52.84
41222;BME280;26952;42.884;23.918;2023-02-24T14:29:15;95347.25;;;15.47;52.36
41222;BME280;26952;42.884;23.918;2023-02-24T14:31:46;95325.31;;;15.07;52.81
41222;BME280;26952;42.884;23.918;2023-02-24T14:34:15;95339.56;;;15.26;53.37
41222;BME280;26952;42.884;23.918;2023-02-24T14:36:44;95330.59;;;15.20;53.56
41222;BME280;26952;42.884;23.918;2023-02-24T14:41:45;95333.50;;;15.06;53.68
41222;BME280;26952;42.884;23.918;2023-02-24T14:44:19;95349.91;;;15.09;54.42
41222;BME280;26952;42.884;23.918;2023-02-24T14:46:52;95333.19;;;14.89;56.21
41222;BME280;26952;42.884;23.918;2023-02-24T14:49:38;95345.28;;;14.85;57.00
41222;BME280;26952;42.884;23.918;2023-02-24T14:52:13;95346.16;;;14.79;58.26
41222;BME280;26952;42.884;23.918;2023-02-24T14:54:41;95340.84;;;14.66;59.03
41222;BME280;26952;42.884;23.918;2023-02-24T14:57:30;95334.50;;;14.61;59.09
41222;BME280;26952;42.884;23.918;2023-02-24T15:00:05;95346.25;;;14.47;62.41
41222;BME280;26952;42.884;23.918;2023-02-24T15:02:37;95314.34;;;14.27;62.04
41222;BME280;26952;42.884;23.918;2023-02-24T15:05:06;95333.97;;;14.39;62.04
41222;BME280;26952;42.884;23.918;2023-02-24T15:07:33;95338.69;;;14.24;61.61
41222;BME280;26952;42.884;23.918;2023-02-24T15:10:00;95332.75;;;14.09;63.08